Time;durP1;ratioP1;P1;durP2;ratioP2;P2;SDS_P1;SDS_P2;PMS_P1;PMS_P2;Temp;Humidity;BMP_temperature;BMP_pressure;BME280_temperature;BME280_humidity;BME280_pressure;Samples;Min_cycle;Max_cycle;Signal;HPM_P1;HPM_P2
2022/05/19 00:01:01;;;;;;;4.38;2.78;;;;;;;;;;5027116;28;20507;-70
2022/05/19 00:03:24;;;;;;;4.10;2.97;;;;;;;;;;5023287;28;20029;-70
2022/05/19 00:05:50;;;;;;;4.90;3.33;;;;;;;;;;5020918;28;20022;-70
2022/05/19 00:08:16;;;;;;;4.40;3.42;;;;;;;;;;5034606;28;20094;-71
2022/05/19 00:10:42;;;;;;;3.33;2.83;;;;;;;;;;5035209;28;20025;-71
2022/05/19 00:13:09;;;;;;;5.38;3.00;;;;;;;;;;5035302;28;20411;-70
2022/05/19 00:15:35;;;;;;;5.60;3.33;;;;;;;;;;5035127;28;20025;-70
2022/05/19 00:18:01;;;;;;;5.15;2.70;;;;;;;;;;5034974;28;20036;-71
2022/05/19 00:20:27;;;;;;;7.13;3.35;;;;;;;;;;5034859;28;20064;-71
2022/05/19 00:22:54;;;;;;;4.78;3.67;;;;;;;;;;5035290;28;20095;-71
2022/05/19 00:25:20;;;;;;;10.98;3.50;;;;;;;;;;5017465;28;20029;-72
2022/05/19 00:27:46;;;;;;;4.63;3.13;;;;;;;;;;5034967;28;20030;-71
2022/05/19 00:30:13;;;;;;;4.63;3.05;;;;;;;;;;5034979;28;20029;-70
2022/05/19 00:32:38;;;;;;;4.57;3.30;;;;;;;;;;5023263;28;20029;-70
2022/05/19 00:35:05;;;;;;;3.90;3.08;;;;;;;;;;5034807;28;20035;-70
2022/05/19 00:37:31;;;;;;;6.38;3.28;;;;;;;;;;5035258;28;20100;-71
2022/05/19 00:39:57;;;;;;;5.78;3.25;;;;;;;;;;5020112;28;20101;-71
2022/05/19 00:45:08;;;;;;;6.03;3.10;;;;;;;;;;5034765;28;20033;-70
2022/05/19 00:47:40;;;;;;;5.13;3.40;;;;;;;;;;5034182;28;20029;-71
2022/05/19 00:50:07;;;;;;;6.90;2.97;;;;;;;;;;5016716;28;20041;-71
2022/05/19 00:52:39;;;;;;;7.00;2.95;;;;;;;;;;5034438;28;20088;-70
2022/05/19 00:55:11;;;;;;;7.97;3.35;;;;;;;;;;5034588;28;20286;-71
2022/05/19 00:57:41;;;;;;;3.60;2.83;;;;;;;;;;5034160;28;20029;-70
2022/05/19 01:00:09;;;;;;;8.48;3.22;;;;;;;;;;5033647;28;20372;-71
2022/05/19 01:02:38;;;;;;;4.00;3.25;;;;;;;;;;5020043;28;20029;-70
2022/05/19 01:05:07;;;;;;;9.63;3.72;;;;;;;;;;5026669;28;20045;-70
2022/05/19 01:07:38;;;;;;;4.53;2.80;;;;;;;;;;5027628;28;20128;-71
2022/05/19 01:10:05;;;;;;;7.82;3.30;;;;;;;;;;5034036;28;20049;-70
2022/05/19 01:12:31;;;;;;;4.55;2.53;;;;;;;;;;5033923;28;20025;-70
2022/05/19 01:14:59;;;;;;;4.88;3.33;;;;;;;;;;5033649;28;20030;-70
2022/05/19 01:17:25;;;;;;;5.88;3.20;;;;;;;;;;5032906;28;20026;-71
2022/05/19 01:19:55;;;;;;;7.18;3.03;;;;;;;;;;5016201;28;20025;-70
2022/05/19 01:22:21;;;;;;;7.95;3.28;;;;;;;;;;5001940;28;20025;-69
2022/05/19 01:24:54;;;;;;;8.57;3.15;;;;;;;;;;5034016;28;20025;-70
2022/05/19 01:27:21;;;;;;;5.60;3.00;;;;;;;;;;5033626;28;20138;-70
2022/05/19 01:29:46;;;;;;;7.65;2.83;;;;;;;;;;5016097;28;20128;-71
2022/05/19 01:32:26;;;;;;;5.95;3.10;;;;;;;;;;5022086;28;20488;-71
2022/05/19 01:34:53;;;;;;;4.00;3.20;;;;;;;;;;5034171;28;20040;-71
2022/05/19 01:37:19;;;;;;;7.35;3.35;;;;;;;;;;5029037;28;20026;-70
2022/05/19 01:39:48;;;;;;;3.88;2.53;;;;;;;;;;5026564;28;20022;-71
2022/05/19 01:42:17;;;;;;;6.15;2.92;;;;;;;;;;5015014;28;20029;-70
2022/05/19 01:45:01;;;;;;;4.93;3.15;;;;;;;;;;5022969;28;20017;-69
2022/05/19 01:47:27;;;;;;;5.32;2.60;;;;;;;;;;5033185;28;20107;-70
2022/05/19 01:49:56;;;;;;;6.95;3.15;;;;;;;;;;5033533;28;20483;-70
2022/05/19 01:52:26;;;;;;;4.07;3.08;;;;;;;;;;5001790;28;20463;-70
2022/05/19 01:55:12;;;;;;;4.90;2.50;;;;;;;;;;5033324;28;20033;-69
2022/05/19 01:57:58;;;;;;;3.90;2.80;;;;;;;;;;5033159;28;20032;-69
2022/05/19 02:00:25;;;;;;;9.25;3.65;;;;;;;;;;5030357;22;20042;-68
2022/05/19 02:03:05;;;;;;;3.50;2.80;;;;;;;;;;5021467;28;20115;-71
2022/05/19 02:05:44;;;;;;;4.50;3.00;;;;;;;;;;5008758;28;20033;-69
2022/05/19 02:08:31;;;;;;;4.38;2.72;;;;;;;;;;5026994;28;20021;-70
2022/05/19 02:11:04;;;;;;;3.97;2.83;;;;;;;;;;5013256;28;20022;-69
2022/05/19 02:13:31;;;;;;;6.38;3.20;;;;;;;;;;5013409;28;20103;-69
2022/05/19 02:15:58;;;;;;;8.95;3.17;;;;;;;;;;5011772;28;20033;-69
2022/05/19 02:18:25;;;;;;;8.48;3.05;;;;;;;;;;5007990;28;20484;-68
2022/05/19 02:20:52;;;;;;;3.85;3.03;;;;;;;;;;5001335;28;20081;-69
2022/05/19 02:23:18;;;;;;;7.20;2.97;;;;;;;;;;4996562;28;20034;-69
2022/05/19 02:25:45;;;;;;;4.70;2.65;;;;;;;;;;5011647;28;20026;-69
2022/05/19 02:28:17;;;;;;;13.95;3.38;;;;;;;;;;5006537;28;20031;-69
2022/05/19 02:30:44;;;;;;;5.75;3.00;;;;;;;;;;4997968;28;20480;-68
2022/05/19 02:33:12;;;;;;;6.13;2.58;;;;;;;;;;5003519;28;20546;-68
2022/05/19 02:35:38;;;;;;;6.28;2.80;;;;;;;;;;5013288;28;20096;-69
2022/05/19 02:38:05;;;;;;;5.05;3.30;;;;;;;;;;5012891;28;20480;-68
2022/05/19 02:40:32;;;;;;;7.72;2.50;;;;;;;;;;5013034;28;20029;-68
2022/05/19 02:42:58;;;;;;;6.63;3.03;;;;;;;;;;5010041;28;20443;-69
2022/05/19 02:45:24;;;;;;;3.58;2.40;;;;;;;;;;4993290;28;20555;-70
2022/05/19 02:47:51;;;;;;;3.97;3.00;;;;;;;;;;5003767;28;20021;-69
2022/05/19 02:50:17;;;;;;;7.50;3.13;;;;;;;;;;5007746;28;20030;-69
2022/05/19 02:52:43;;;;;;;5.72;2.95;;;;;;;;;;5012500;28;20026;-69
2022/05/19 02:55:10;;;;;;;6.65;3.53;;;;;;;;;;5012454;28;20037;-68
2022/05/19 02:57:36;;;;;;;8.90;3.28;;;;;;;;;;5012244;28;20041;-68
2022/05/19 03:00:02;;;;;;;6.65;3.65;;;;;;;;;;5012276;28;20038;-68
2022/05/19 03:02:28;;;;;;;6.18;2.60;;;;;;;;;;4997238;28;20072;-68
2022/05/19 03:04:54;;;;;;;5.85;3.13;;;;;;;;;;5004621;28;20030;-68
2022/05/19 03:07:20;;;;;;;15.07;6.78;;;;;;;;;;5004143;28;20033;-68
2022/05/19 03:09:46;;;;;;;4.60;2.90;;;;;;;;;;5012097;28;20022;-68
2022/05/19 03:12:13;;;;;;;11.90;5.25;;;;;;;;;;5012405;28;20026;-69
2022/05/19 03:14:39;;;;;;;28.60;15.48;;;;;;;;;;5012161;28;20025;-68
2022/05/19 03:17:09;;;;;;;17.42;10.80;;;;;;;;;;5010899;28;20029;-68
2022/05/19 03:19:36;;;;;;;4.22;3.13;;;;;;;;;;5012141;28;20037;-68
2022/05/19 03:22:03;;;;;;;7.07;2.90;;;;;;;;;;5011980;28;20383;-68
2022/05/19 03:24:29;;;;;;;8.95;3.30;;;;;;;;;;5010883;28;20025;-68
2022/05/19 03:26:55;;;;;;;6.38;3.08;;;;;;;;;;5012026;28;20051;-68
2022/05/19 03:29:21;;;;;;;17.45;6.53;;;;;;;;;;5011665;28;20049;-68
2022/05/19 03:31:47;;;;;;;7.13;3.83;;;;;;;;;;5001319;28;20058;-69
2022/05/19 03:34:17;;;;;;;17.65;6.95;;;;;;;;;;5011000;28;20053;-69
2022/05/19 03:36:43;;;;;;;16.85;8.48;;;;;;;;;;5012218;28;20037;-69
2022/05/19 03:39:10;;;;;;;4.43;3.03;;;;;;;;;;5011315;28;20060;-69
2022/05/19 03:41:36;;;;;;;9.60;4.80;;;;;;;;;;5011842;28;20492;-69
2022/05/19 03:44:02;;;;;;;8.88;4.20;;;;;;;;;;5001208;28;20057;-70
2022/05/19 03:46:28;;;;;;;6.43;2.90;;;;;;;;;;5012124;28;20018;-70
2022/05/19 03:48:54;;;;;;;5.63;3.08;;;;;;;;;;5011644;28;20022;-70
2022/05/19 03:51:24;;;;;;;4.60;2.58;;;;;;;;;;5005251;28;20025;-69
2022/05/19 03:53:51;;;;;;;6.82;3.03;;;;;;;;;;5007860;28;20033;-70
2022/05/19 03:56:17;;;;;;;6.78;3.50;;;;;;;;;;5012144;28;20023;-70
2022/05/19 03:58:43;;;;;;;4.47;2.40;;;;;;;;;;5011578;28;20476;-68
2022/05/19 04:01:09;;;;;;;3.03;2.67;;;;;;;;;;5002988;28;20129;-68
2022/05/19 04:03:35;;;;;;;4.38;2.75;;;;;;;;;;5005671;28;20107;-68
2022/05/19 04:06:01;;;;;;;3.95;2.30;;;;;;;;;;4997416;28;20045;-69
2022/05/19 04:08:27;;;;;;;5.47;2.55;;;;;;;;;;5011568;28;20026;-68
2022/05/19 04:10:54;;;;;;;5.03;2.38;;;;;;;;;;5011454;28;20022;-69
2022/05/19 04:13:20;;;;;;;3.38;2.65;;;;;;;;;;5009991;28;20570;-69
2022/05/19 04:15:46;;;;;;;5.72;2.83;;;;;;;;;;5011371;28;20053;-69
2022/05/19 04:18:12;;;;;;;4.38;2.50;;;;;;;;;;5011058;28;20468;-70
2022/05/19 04:20:38;;;;;;;3.25;2.53;;;;;;;;;;5011522;28;20026;-69
2022/05/19 04:23:04;;;;;;;6.55;2.85;;;;;;;;;;5011567;28;20033;-69
2022/05/19 04:25:30;;;;;;;6.07;2.58;;;;;;;;;;5010230;28;20084;-69
2022/05/19 04:27:59;;;;;;;4.78;2.28;;;;;;;;;;5001278;28;20023;-71
2022/05/19 04:30:26;;;;;;;3.90;2.20;;;;;;;;;;5011122;28;20033;-70
2022/05/19 04:32:52;;;;;;;8.95;2.60;;;;;;;;;;4999364;28;20109;-69
2022/05/19 04:35:18;;;;;;;8.15;2.60;;;;;;;;;;5011261;28;20116;-69
2022/05/19 04:37:45;;;;;;;8.02;2.55;;;;;;;;;;5011150;28;20064;-70
2022/05/19 04:40:12;;;;;;;2.60;2.30;;;;;;;;;;5010025;28;20029;-70
2022/05/19 04:42:38;;;;;;;8.90;2.72;;;;;;;;;;5008191;28;20427;-70
2022/05/19 04:45:04;;;;;;;7.68;2.85;;;;;;;;;;5009330;28;20022;-69
2022/05/19 04:47:30;;;;;;;4.47;2.47;;;;;;;;;;5008823;28;20040;-69
2022/05/19 04:49:56;;;;;;;4.22;2.35;;;;;;;;;;5001088;28;20061;-69
2022/05/19 04:52:22;;;;;;;5.18;2.22;;;;;;;;;;5002168;28;20026;-69
2022/05/19 04:54:49;;;;;;;6.95;2.55;;;;;;;;;;5013193;28;20518;-70
2022/05/19 04:57:14;;;;;;;3.67;2.67;;;;;;;;;;5014297;28;20034;-69
2022/05/19 04:59:42;;;;;;;8.88;2.60;;;;;;;;;;5014306;28;20535;-69
2022/05/19 05:02:08;;;;;;;6.70;2.35;;;;;;;;;;4999303;28;20035;-69
2022/05/19 05:04:35;;;;;;;3.20;2.42;;;;;;;;;;5010622;28;20026;-69
2022/05/19 05:07:00;;;;;;;6.50;2.55;;;;;;;;;;5003173;28;20145;-69
2022/05/19 05:09:26;;;;;;;4.15;2.50;;;;;;;;;;4997425;28;20035;-68
2022/05/19 05:11:52;;;;;;;3.35;2.35;;;;;;;;;;5010646;28;20117;-70
2022/05/19 05:14:18;;;;;;;5.43;2.70;;;;;;;;;;5013991;28;20025;-70
2022/05/19 05:16:48;;;;;;;10.95;3.25;;;;;;;;;;5012438;28;20472;-70
2022/05/19 05:19:18;;;;;;;6.85;2.55;;;;;;;;;;5014249;28;20479;-70
2022/05/19 05:21:44;;;;;;;5.15;2.85;;;;;;;;;;5012353;28;20030;-70
2022/05/19 05:24:11;;;;;;;4.20;1.98;;;;;;;;;;5000960;28;20037;-69
2022/05/19 05:26:37;;;;;;;5.68;2.40;;;;;;;;;;5001856;28;20121;-70
2022/05/19 05:29:03;;;;;;;5.90;2.60;;;;;;;;;;5003850;28;20150;-69
2022/05/19 05:31:29;;;;;;;4.70;2.08;;;;;;;;;;4997932;28;20022;-69
2022/05/19 05:33:55;;;;;;;5.15;2.60;;;;;;;;;;5009256;28;20049;-73
2022/05/19 05:36:21;;;;;;;4.90;2.47;;;;;;;;;;4996210;28;20113;-77
2022/05/19 05:38:47;;;;;;;6.97;2.05;;;;;;;;;;4998043;28;20037;-76
2022/05/19 05:41:13;;;;;;;6.18;2.42;;;;;;;;;;5014058;28;20018;-76
2022/05/19 05:43:40;;;;;;;3.78;2.20;;;;;;;;;;4994474;28;20030;-76
2022/05/19 05:46:09;;;;;;;7.60;2.58;;;;;;;;;;5002182;28;20022;-69
2022/05/19 05:48:36;;;;;;;16.23;3.10;;;;;;;;;;5012090;28;20438;-69
2022/05/19 05:51:06;;;;;;;4.10;2.55;;;;;;;;;;5012604;28;20371;-69
2022/05/19 05:53:32;;;;;;;4.15;2.20;;;;;;;;;;4993075;28;20034;-68
2022/05/19 05:55:58;;;;;;;4.72;2.22;;;;;;;;;;5013496;28;20022;-69
2022/05/19 05:58:25;;;;;;;7.78;2.20;;;;;;;;;;5013161;28;20025;-69
2022/05/19 06:00:51;;;;;;;7.35;2.20;;;;;;;;;;5013588;28;20030;-70
2022/05/19 06:03:17;;;;;;;10.38;2.40;;;;;;;;;;5012346;28;20503;-69
2022/05/19 06:05:43;;;;;;;7.57;2.55;;;;;;;;;;5011079;28;20022;-68
2022/05/19 06:08:09;;;;;;;8.27;2.10;;;;;;;;;;5012987;28;20038;-69
2022/05/19 06:10:35;;;;;;;6.20;2.20;;;;;;;;;;5009903;28;20028;-68
2022/05/19 06:13:01;;;;;;;11.02;2.80;;;;;;;;;;5012714;28;20021;-69
2022/05/19 06:15:28;;;;;;;6.75;2.00;;;;;;;;;;5012946;28;20037;-77
2022/05/19 06:17:54;;;;;;;5.30;2.50;;;;;;;;;;5012493;28;20029;-79
2022/05/19 06:20:20;;;;;;;4.45;1.60;;;;;;;;;;5013339;28;20049;-76
2022/05/19 06:22:47;;;;;;;6.43;2.08;;;;;;;;;;4996452;28;20033;-78
2022/05/19 06:25:16;;;;;;;10.55;2.60;;;;;;;;;;5013774;28;20117;-79
2022/05/19 06:27:42;;;;;;;8.63;2.20;;;;;;;;;;5012996;28;20381;-77
2022/05/19 06:30:09;;;;;;;4.32;2.05;;;;;;;;;;5011364;28;20113;-77
2022/05/19 06:32:35;;;;;;;6.70;2.50;;;;;;;;;;5011907;28;20026;-76
2022/05/19 06:35:01;;;;;;;5.80;2.13;;;;;;;;;;5011175;28;20021;-73
2022/05/19 06:37:27;;;;;;;10.07;1.80;;;;;;;;;;5012611;28;20030;-70
2022/05/19 06:39:53;;;;;;;14.07;2.47;;;;;;;;;;5011510;28;20045;-79
2022/05/19 06:42:19;;;;;;;3.53;2.20;;;;;;;;;;5013411;28;20026;-77
2022/05/19 06:44:45;;;;;;;3.00;1.52;;;;;;;;;;5011300;28;20024;-74
2022/05/19 06:47:15;;;;;;;5.68;2.30;;;;;;;;;;5012580;28;20022;-71
2022/05/19 06:49:42;;;;;;;7.55;1.85;;;;;;;;;;5013776;28;20477;-77
2022/05/19 06:52:11;;;;;;;10.48;5.78;;;;;;;;;;5013056;28;20060;-76
2022/05/19 06:54:37;;;;;;;17.17;2.63;;;;;;;;;;5012560;28;20362;-75
2022/05/19 06:57:03;;;;;;;11.32;4.45;;;;;;;;;;5012712;28;20044;-73
2022/05/19 06:59:31;;;;;;;28.92;15.55;;;;;;;;;;5012355;28;20172;-77
2022/05/19 07:01:57;;;;;;;13.60;5.43;;;;;;;;;;5012889;28;20088;-75
2022/05/19 07:04:23;;;;;;;8.80;5.72;;;;;;;;;;5012860;28;20484;-75
2022/05/19 07:06:49;;;;;;;41.15;24.15;;;;;;;;;;5012518;28;20417;-75
2022/05/19 07:09:15;;;;;;;23.23;13.02;;;;;;;;;;5011941;28;20026;-75
2022/05/19 07:11:41;;;;;;;6.95;3.03;;;;;;;;;;5012438;28;20109;-73
2022/05/19 07:14:08;;;;;;;7.53;2.30;;;;;;;;;;5012222;28;20026;-72
2022/05/19 07:16:38;;;;;;;23.40;10.88;;;;;;;;;;5011013;28;20097;-76
2022/05/19 07:21:49;;;;;;;7.10;2.63;;;;;;;;;;5012407;28;20065;-73
2022/05/19 07:24:16;;;;;;;12.20;7.70;;;;;;;;;;5012077;28;20028;-74
2022/05/19 07:26:49;;;;;;;6.60;1.80;;;;;;;;;;5012194;28;20022;-77
2022/05/19 07:29:18;;;;;;;9.15;2.55;;;;;;;;;;5011873;28;20033;-77
2022/05/19 07:31:46;;;;;;;6.13;1.83;;;;;;;;;;5012050;28;20022;-71
2022/05/19 07:34:13;;;;;;;7.95;2.33;;;;;;;;;;5010722;28;20022;-75
2022/05/19 07:36:39;;;;;;;10.18;4.78;;;;;;;;;;5012087;28;20056;-72
2022/05/19 07:39:05;;;;;;;7.05;1.73;;;;;;;;;;5011720;28;20499;-70
2022/05/19 07:41:32;;;;;;;5.10;1.83;;;;;;;;;;5012293;28;20026;-71
2022/05/19 07:43:58;;;;;;;3.70;1.70;;;;;;;;;;5010988;28;20026;-74
2022/05/19 07:46:25;;;;;;;7.32;2.00;;;;;;;;;;5012348;28;20042;-72
2022/05/19 07:48:54;;;;;;;5.95;1.85;;;;;;;;;;5011481;28;20344;-77
2022/05/19 07:51:20;;;;;;;11.43;6.93;;;;;;;;;;5011904;28;20022;-73
2022/05/19 07:53:46;;;;;;;8.13;2.30;;;;;;;;;;5011760;28;20037;-73
2022/05/19 07:56:12;;;;;;;5.75;2.45;;;;;;;;;;5011771;28;20030;-75
2022/05/19 07:58:38;;;;;;;6.68;3.85;;;;;;;;;;5011651;28;20395;-76
2022/05/19 08:01:05;;;;;;;7.93;5.57;;;;;;;;;;5042331;22;20059;-74
2022/05/19 08:03:31;;;;;;;4.10;1.40;;;;;;;;;;5041641;28;20061;-75
2022/05/19 08:05:57;;;;;;;4.63;1.52;;;;;;;;;;5043927;28;20032;-74
2022/05/19 08:08:23;;;;;;;3.10;1.35;;;;;;;;;;5034375;28;20036;-72
2022/05/19 08:10:49;;;;;;;3.15;1.33;;;;;;;;;;5029904;28;20120;-75
2022/05/19 08:15:59;;;;;;;5.63;2.85;;;;;;;;;;5049394;28;20094;-74
2022/05/19 08:18:26;;;;;;;17.13;12.05;;;;;;;;;;5049478;28;20467;-75
2022/05/19 08:20:54;;;;;;;6.15;1.20;;;;;;;;;;5050926;28;20025;-70
2022/05/19 08:23:22;;;;;;;2.88;1.42;;;;;;;;;;5050134;28;20025;-71
2022/05/19 08:25:48;;;;;;;6.32;1.38;;;;;;;;;;5052662;28;20039;-70
2022/05/19 08:28:16;;;;;;;5.30;1.92;;;;;;;;;;5036560;28;20028;-70
2022/05/19 08:30:43;;;;;;;4.75;2.50;;;;;;;;;;5054085;28;20036;-69
2022/05/19 08:33:10;;;;;;;3.42;2.60;;;;;;;;;;5054457;28;20069;-70
2022/05/19 08:35:36;;;;;;;9.93;5.28;;;;;;;;;;5036353;28;20057;-69
2022/05/19 08:38:02;;;;;;;7.55;2.63;;;;;;;;;;5054300;28;20049;-69
2022/05/19 08:40:29;;;;;;;4.25;2.30;;;;;;;;;;5054491;28;20550;-70
2022/05/19 08:42:58;;;;;;;4.80;1.30;;;;;;;;;;5054493;28;20033;-70
2022/05/19 08:45:30;;;;;;;3.92;1.23;;;;;;;;;;5036533;28;20455;-70
2022/05/19 08:48:02;;;;;;;4.82;2.83;;;;;;;;;;5026568;28;20022;-69
2022/05/19 08:50:34;;;;;;;13.50;9.10;;;;;;;;;;5017187;28;20108;-70
2022/05/19 08:53:11;;;;;;;8.13;4.57;;;;;;;;;;5034822;28;20494;-70
2022/05/19 08:55:41;;;;;;;4.20;1.50;;;;;;;;;;5034778;28;20053;-70
2022/05/19 08:58:27;;;;;;;7.25;2.38;;;;;;;;;;5016048;28;20029;-70
2022/05/19 09:00:55;;;;;;;3.65;1.17;;;;;;;;;;5034508;28;20036;-70
2022/05/19 09:03:53;;;;;;;5.72;1.55;;;;;;;;;;5034733;28;20032;-69
2022/05/19 09:06:38;;;;;;;11.55;3.45;;;;;;;;;;4990818;28;20041;-70
2022/05/19 09:09:17;;;;;;;11.65;3.22;;;;;;;;;;5015677;28;20097;-70
2022/05/19 09:11:48;;;;;;;4.60;1.65;;;;;;;;;;5034461;28;20594;-70
2022/05/19 09:14:18;;;;;;;3.65;2.00;;;;;;;;;;5034532;28;20025;-70
2022/05/19 09:16:44;;;;;;;4.47;1.85;;;;;;;;;;5034184;28;20026;-70
2022/05/19 09:19:16;;;;;;;7.95;2.03;;;;;;;;;;5033912;28;20482;-70
2022/05/19 09:21:42;;;;;;;6.90;1.50;;;;;;;;;;5034394;28;20029;-70
2022/05/19 09:24:11;;;;;;;5.72;1.85;;;;;;;;;;5034312;28;20044;-70
2022/05/19 09:26:46;;;;;;;5.32;2.17;;;;;;;;;;5016270;28;20026;-69
2022/05/19 09:29:13;;;;;;;2.10;1.48;;;;;;;;;;5033699;28;20128;-70
2022/05/19 09:31:41;;;;;;;4.00;1.30;;;;;;;;;;5016340;28;20021;-69
2022/05/19 09:34:08;;;;;;;4.32;1.83;;;;;;;;;;5034102;28;20065;-69
2022/05/19 09:36:40;;;;;;;4.38;1.60;;;;;;;;;;5032426;28;20029;-69
2022/05/19 09:39:09;;;;;;;7.68;1.75;;;;;;;;;;5033329;28;20029;-69
2022/05/19 09:41:37;;;;;;;5.55;1.70;;;;;;;;;;5033731;28;20125;-68
2022/05/19 09:44:04;;;;;;;7.45;2.70;;;;;;;;;;5033694;28;20033;-69
2022/05/19 09:46:44;;;;;;;6.97;1.75;;;;;;;;;;5033554;28;20467;-69
2022/05/19 09:49:19;;;;;;;2.22;1.95;;;;;;;;;;5033318;28;20149;-70
2022/05/19 09:51:48;;;;;;;2.13;1.48;;;;;;;;;;5033433;28;20100;-68
2022/05/19 09:54:14;;;;;;;5.53;1.60;;;;;;;;;;5033371;28;20028;-68
2022/05/19 09:56:46;;;;;;;6.03;2.30;;;;;;;;;;5033160;28;20030;-69
2022/05/19 09:59:18;;;;;;;5.30;1.50;;;;;;;;;;5014906;28;20048;-69
2022/05/19 10:01:46;;;;;;;4.78;1.40;;;;;;;;;;5033292;28;20044;-69
2022/05/19 10:04:18;;;;;;;2.92;1.27;;;;;;;;;;5033183;28;20400;-68
2022/05/19 10:06:51;;;;;;;3.60;1.60;;;;;;;;;;5033253;28;20487;-69
2022/05/19 10:09:19;;;;;;;6.53;2.38;;;;;;;;;;5032921;28;20032;-69
2022/05/19 10:11:49;;;;;;;5.05;1.33;;;;;;;;;;5033800;28;20017;-69
2022/05/19 10:14:17;;;;;;;5.18;1.30;;;;;;;;;;5033420;28;20026;-69
2022/05/19 10:16:59;;;;;;;3.22;1.58;;;;;;;;;;5033045;28;20104;-69
2022/05/19 10:19:36;;;;;;;4.85;1.85;;;;;;;;;;5033205;28;20043;-70
2022/05/19 10:22:20;;;;;;;3.40;1.33;;;;;;;;;;5033169;28;20026;-69
2022/05/19 10:24:49;;;;;;;9.25;1.70;;;;;;;;;;5033090;28;20100;-69
2022/05/19 10:32:59;;;;;;;5.28;1.58;;;;;;;;;;5033385;28;20076;-69
2022/05/19 10:35:39;;;;;;;4.60;1.40;;;;;;;;;;5032378;28;20028;-69
2022/05/19 10:38:18;;;;;;;5.05;1.13;;;;;;;;;;5032381;28;20029;-69
2022/05/19 10:41:03;;;;;;;4.05;1.08;;;;;;;;;;5032955;28;20030;-69
2022/05/19 10:43:48;;;;;;;3.83;1.95;;;;;;;;;;5032688;28;20022;-69
2022/05/19 10:46:15;;;;;;;6.07;2.60;;;;;;;;;;5014565;28;20060;-68
2022/05/19 10:48:41;;;;;;;3.42;1.10;;;;;;;;;;5031571;28;20022;-69
2022/05/19 10:51:22;;;;;;;7.10;1.50;;;;;;;;;;5032269;28;20494;-70
2022/05/19 10:53:59;;;;;;;5.55;2.03;;;;;;;;;;5032392;28;20364;-70
2022/05/19 10:56:32;;;;;;;4.35;1.25;;;;;;;;;;5032345;28;20414;-70
2022/05/19 10:59:16;;;;;;;4.75;1.50;;;;;;;;;;5031982;28;20029;-69
2022/05/19 11:01:50;;;;;;;4.15;1.42;;;;;;;;;;5032106;28;20454;-70
2022/05/19 11:04:25;;;;;;;2.60;1.05;;;;;;;;;;5032224;28;20033;-69
2022/05/19 11:07:09;;;;;;;2.65;1.10;;;;;;;;;;5032140;28;20096;-69
2022/05/19 11:09:53;;;;;;;5.00;1.80;;;;;;;;;;5032063;28;20022;-68
2022/05/19 11:12:31;;;;;;;5.40;2.78;;;;;;;;;;5032225;28;20105;-68
2022/05/19 11:15:09;;;;;;;3.17;1.20;;;;;;;;;;5032125;28;20030;-69
2022/05/19 11:17:56;;;;;;;3.47;1.20;;;;;;;;;;5031790;28;20032;-69
2022/05/19 11:20:26;;;;;;;2.88;1.30;;;;;;;;;;5014306;28;20064;-69
2022/05/19 11:22:54;;;;;;;5.05;2.67;;;;;;;;;;5031629;28;20052;-69
2022/05/19 11:28:09;;;;;;;2.42;1.35;;;;;;;;;;5031792;28;20044;-72
2022/05/19 11:30:42;;;;;;;4.97;2.33;;;;;;;;;;5031825;28;20029;-69
2022/05/19 11:33:12;;;;;;;1.92;1.20;;;;;;;;;;5031649;28;20037;-69
2022/05/19 11:35:44;;;;;;;5.47;1.40;;;;;;;;;;5031854;28;20026;-69
2022/05/19 11:38:24;;;;;;;2.45;0.98;;;;;;;;;;5031353;28;20044;-70
2022/05/19 11:40:53;;;;;;;3.35;1.90;;;;;;;;;;5031246;28;20368;-70
2022/05/19 11:43:41;;;;;;;3.90;1.50;;;;;;;;;;5031605;28;20056;-69
2022/05/19 11:46:11;;;;;;;6.32;1.27;;;;;;;;;;5031617;28;20136;-69
2022/05/19 11:57:12;;;;;;;4.03;1.27;;;;;;;;;;5031091;28;20403;-69
2022/05/19 11:59:38;;;;;;;3.35;1.65;;;;;;;;;;5030523;28;20499;-68
2022/05/19 12:02:05;;;;;;;7.55;1.60;;;;;;;;;;5031444;28;20040;-68
2022/05/19 12:04:32;;;;;;;5.43;2.08;;;;;;;;;;5031206;28;20030;-70
2022/05/19 12:07:04;;;;;;;2.70;1.40;;;;;;;;;;5031291;28;20021;-70
2022/05/19 12:09:41;;;;;;;4.28;1.33;;;;;;;;;;5031264;28;20101;-69
2022/05/19 12:12:29;;;;;;;3.70;1.23;;;;;;;;;;5031418;28;20033;-68
2022/05/19 12:15:18;;;;;;;2.17;1.00;;;;;;;;;;5031334;28;20045;-69
2022/05/19 12:17:46;;;;;;;3.55;1.25;;;;;;;;;;5020598;28;20107;-69
2022/05/19 12:20:31;;;;;;;8.10;1.20;;;;;;;;;;5031099;28;20021;-69
2022/05/19 12:23:15;;;;;;;4.53;1.50;;;;;;;;;;5031300;28;20029;-70
2022/05/19 12:25:43;;;;;;;12.02;1.83;;;;;;;;;;5031282;28;20072;-70
2022/05/19 12:28:18;;;;;;;6.18;1.80;;;;;;;;;;5030952;28;20026;-69
2022/05/19 12:33:39;;;;;;;4.72;1.50;;;;;;;;;;5030894;28;20090;-71
2022/05/19 12:36:16;;;;;;;6.35;2.28;;;;;;;;;;5030870;28;20030;-69
2022/05/19 12:38:43;;;;;;;5.75;1.80;;;;;;;;;;5030801;28;20034;-68
2022/05/19 12:41:31;;;;;;;5.35;1.33;;;;;;;;;;5030784;28;20029;-69
2022/05/19 12:43:58;;;;;;;5.90;1.52;;;;;;;;;;5017985;28;20052;-68
2022/05/19 12:46:33;;;;;;;6.72;1.35;;;;;;;;;;5030967;28;20108;-70
2022/05/19 12:49:20;;;;;;;4.60;1.58;;;;;;;;;;5030701;28;20061;-69
2022/05/19 12:51:51;;;;;;;1.95;1.38;;;;;;;;;;5030924;28;20041;-69
2022/05/19 12:54:17;;;;;;;;;;;;;;;;;;5031554;28;20026;-71
2022/05/19 12:56:46;;;;;;;2.97;1.42;;;;;;;;;;5030771;28;19909;-69
2022/05/19 12:59:31;;;;;;;4.00;1.73;;;;;;;;;;5030458;28;20310;-70
2022/05/19 13:02:02;;;;;;;3.65;1.27;;;;;;;;;;5030908;28;20032;-69
2022/05/19 13:04:28;;;;;;;3.55;1.40;;;;;;;;;;5031414;28;20085;-69
2022/05/19 13:07:21;;;;;;;4.22;1.45;;;;;;;;;;5031337;28;20057;-69
2022/05/19 13:09:53;;;;;;;5.47;1.58;;;;;;;;;;5027546;28;20084;-68
2022/05/19 13:12:21;;;;;;;5.30;1.40;;;;;;;;;;5033042;28;20033;-69
2022/05/19 13:14:53;;;;;;;3.42;1.13;;;;;;;;;;5034478;28;20264;-68
2022/05/19 13:17:31;;;;;;;3.17;1.38;;;;;;;;;;5016142;28;20025;-69
2022/05/19 13:19:57;;;;;;;2.95;1.42;;;;;;;;;;5034455;28;20112;-68
2022/05/19 13:22:25;;;;;;;5.63;1.27;;;;;;;;;;5034327;28;20080;-69
2022/05/19 13:24:51;;;;;;;3.15;1.27;;;;;;;;;;5034283;28;20026;-70
2022/05/19 13:30:30;;;;;;;7.15;1.77;;;;;;;;;;5034919;28;20044;-70
2022/05/19 13:33:12;;;;;;;4.43;1.38;;;;;;;;;;5034686;28;20017;-70
2022/05/19 13:35:39;;;;;;;6.38;1.40;;;;;;;;;;5034198;28;20483;-69
2022/05/19 13:38:22;;;;;;;5.60;1.45;;;;;;;;;;5015991;28;20026;-69
2022/05/19 13:40:49;;;;;;;3.55;1.40;;;;;;;;;;5033739;28;20135;-69
2022/05/19 13:43:24;;;;;;;14.10;2.13;;;;;;;;;;5034052;28;20029;-70
2022/05/19 13:46:05;;;;;;;8.10;1.55;;;;;;;;;;5033337;28;20064;-69
2022/05/19 13:48:45;;;;;;;8.70;1.63;;;;;;;;;;5033417;28;20282;-68
2022/05/19 13:51:17;;;;;;;9.88;1.38;;;;;;;;;;5033319;28;20025;-68
2022/05/19 13:53:45;;;;;;;8.75;1.38;;;;;;;;;;5033341;28;20033;-70
2022/05/19 13:56:11;;;;;;;6.95;1.80;;;;;;;;;;5032781;28;20575;-69
2022/05/19 13:58:37;;;;;;;4.65;1.10;;;;;;;;;;5015141;28;20566;-70
2022/05/19 14:01:06;;;;;;;6.15;1.63;;;;;;;;;;5026179;22;20102;-72
2022/05/19 14:03:32;;;;;;;6.40;1.45;;;;;;;;;;4994044;28;20041;-71
2022/05/19 14:05:58;;;;;;;3.55;1.60;;;;;;;;;;4994126;28;20045;-70
2022/05/19 14:08:25;;;;;;;2.15;1.10;;;;;;;;;;4975892;28;20026;-70
2022/05/19 14:10:55;;;;;;;7.25;2.13;;;;;;;;;;4992689;28;20030;-70
2022/05/19 14:13:23;;;;;;;4.13;1.60;;;;;;;;;;4992939;28;20105;-71
2022/05/19 14:15:51;;;;;;;2.65;1.48;;;;;;;;;;4993185;28;20042;-71
2022/05/19 14:18:21;;;;;;;1.95;1.55;;;;;;;;;;4992702;28;20022;-69
2022/05/19 14:20:49;;;;;;;4.93;1.30;;;;;;;;;;4992763;28;20121;-70
2022/05/19 14:23:28;;;;;;;3.97;1.42;;;;;;;;;;4992201;28;20510;-70
2022/05/19 14:26:01;;;;;;;4.07;1.50;;;;;;;;;;4993722;28;20033;-71
2022/05/19 14:28:35;;;;;;;2.40;1.50;;;;;;;;;;4993334;28;20027;-71
2022/05/19 14:31:15;;;;;;;5.68;1.88;;;;;;;;;;4976406;28;20034;-72
2022/05/19 14:33:52;;;;;;;3.08;1.58;;;;;;;;;;4993760;28;20048;-71
2022/05/19 14:36:20;;;;;;;2.22;1.52;;;;;;;;;;4993550;28;20019;-71
2022/05/19 14:38:47;;;;;;;2.53;1.50;;;;;;;;;;4993149;28;20501;-71
2022/05/19 14:44:03;;;;;;;2.13;1.30;;;;;;;;;;4991519;28;20033;-69
2022/05/19 14:46:30;;;;;;;2.75;1.45;;;;;;;;;;4991436;28;20026;-70
2022/05/19 14:49:05;;;;;;;5.30;1.60;;;;;;;;;;4991413;28;20083;-71
2022/05/19 14:51:35;;;;;;;3.40;1.23;;;;;;;;;;4974303;28;20472;-71
2022/05/19 14:54:01;;;;;;;2.25;1.40;;;;;;;;;;4991338;28;20033;-70
2022/05/19 14:56:41;;;;;;;2.67;1.45;;;;;;;;;;4992398;28;20116;-72
2022/05/19 14:59:09;;;;;;;4.60;2.00;;;;;;;;;;4992992;28;20027;-71
2022/05/19 15:01:35;;;;;;;4.40;1.52;;;;;;;;;;4975645;28;20041;-71
2022/05/19 15:04:01;;;;;;;3.30;1.58;;;;;;;;;;4975865;28;20027;-71
2022/05/19 15:06:27;;;;;;;4.43;1.55;;;;;;;;;;4975854;28;20077;-73
2022/05/19 15:08:55;;;;;;;1.90;1.30;;;;;;;;;;4993143;28;20031;-72
2022/05/19 15:11:21;;;;;;;4.43;1.38;;;;;;;;;;4975828;28;20380;-71
2022/05/19 15:13:47;;;;;;;5.53;1.70;;;;;;;;;;4992976;28;20448;-71
2022/05/19 15:16:13;;;;;;;2.85;1.05;;;;;;;;;;4993186;28;20077;-71
2022/05/19 15:18:40;;;;;;;6.55;1.52;;;;;;;;;;4992825;28;20034;-71
2022/05/19 15:21:06;;;;;;;5.60;1.45;;;;;;;;;;4992717;28;20030;-70
2022/05/19 15:23:32;;;;;;;6.20;1.50;;;;;;;;;;4992927;28;20030;-70
2022/05/19 15:25:58;;;;;;;3.40;1.42;;;;;;;;;;4992817;28;20065;-71
2022/05/19 15:28:26;;;;;;;6.15;1.50;;;;;;;;;;4992362;28;20044;-71